createdAt,value
2018-12-20T06:39:16.930Z,12.33
2018-12-20T06:42:04.697Z,13.65
2018-12-20T06:44:33.499Z,14.53
2018-12-20T06:47:07.570Z,13.10
2018-12-20T06:49:37.299Z,13.15
2018-12-20T06:52:11.323Z,14.10
2018-12-20T06:54:44.455Z,14.07
2018-12-20T06:57:17.674Z,13.85
2018-12-20T06:59:46.382Z,14.40
2018-12-20T07:02:21.954Z,12.98
2018-12-20T07:04:53.918Z,14.00
2018-12-20T07:07:23.682Z,13.32
2018-12-20T07:09:55.748Z,14.30
2018-12-20T07:12:25.502Z,14.03
2018-12-20T07:14:54.298Z,14.15
2018-12-20T07:17:24.051Z,14.23
2018-12-20T07:19:53.735Z,15.63
2018-12-20T07:22:22.556Z,13.50
2018-12-20T07:24:52.335Z,14.78
2018-12-20T07:27:21.143Z,15.03
2018-12-20T07:29:49.951Z,14.70
2018-12-20T07:32:29.080Z,15.05
2018-12-20T07:35:06.746Z,15.50
2018-12-20T07:37:39.103Z,14.98
2018-12-20T07:40:12.235Z,15.72
2018-12-20T07:42:47.072Z,15.98
2018-12-20T07:45:22.852Z,14.80
2018-12-20T07:47:57.212Z,14.10
2018-12-20T07:50:27.024Z,15.32
2018-12-20T07:52:56.783Z,14.80
2018-12-20T07:55:33.992Z,16.65
2018-12-20T07:58:03.918Z,16.25
2018-12-20T08:00:45.942Z,16.60
2018-12-20T08:03:18.847Z,15.72
2018-12-20T08:05:49.451Z,18.73
2018-12-20T08:08:20.183Z,17.80
2018-12-20T08:10:49.999Z,17.73
2018-12-20T08:13:18.961Z,17.90
2018-12-20T08:15:47.835Z,16.82
2018-12-20T08:18:17.575Z,17.40
2018-12-20T08:20:47.491Z,17.67
2018-12-20T08:23:17.219Z,17.60
2018-12-20T08:25:47.878Z,18.67
2018-12-20T08:28:16.743Z,17.82
2018-12-20T08:30:46.466Z,18.65
2018-12-20T08:33:15.231Z,18.85
2018-12-20T08:35:48.135Z,18.42
2018-12-20T08:38:17.000Z,20.12
2018-12-20T08:43:07.472Z,19.37
2018-12-20T08:45:39.979Z,18.37
2018-12-20T08:48:12.739Z,19.32
2018-12-20T08:50:47.271Z,22.40
2018-12-20T08:53:21.351Z,21.12
2018-12-20T08:55:52.135Z,20.17
2018-12-20T08:58:30.604Z,20.95
2018-12-20T09:01:00.443Z,20.92
2018-12-20T09:03:30.139Z,22.00
2018-12-20T09:06:02.185Z,22.62
2018-12-20T09:08:31.025Z,19.42
2018-12-20T09:10:59.879Z,22.07
2018-12-20T09:13:30.567Z,21.65
2018-12-20T09:16:07.803Z,20.62
2018-12-20T09:18:46.607Z,20.48
2018-12-20T09:21:16.394Z,19.65
2018-12-20T09:23:59.879Z,20.85
2018-12-20T09:26:49.175Z,19.95
2018-12-20T09:29:18.023Z,20.52
2018-12-20T09:31:46.855Z,18.37
2018-12-20T09:34:20.171Z,17.10
2018-12-20T09:36:49.920Z,18.42
2018-12-20T09:39:22.135Z,17.25
2018-12-20T09:41:50.872Z,17.57
2018-12-20T09:44:25.022Z,16.02
2018-12-20T09:46:57.748Z,17.70
2018-12-20T09:49:34.824Z,16.93
2018-12-20T09:52:04.720Z,17.92
2018-12-20T09:54:37.456Z,16.25
2018-12-20T09:57:06.568Z,18.40
2018-12-20T09:59:39.261Z,15.83
2018-12-20T10:02:11.400Z,17.02
2018-12-20T10:04:40.192Z,15.28
2018-12-20T10:07:09.948Z,15.93
2018-12-20T10:09:47.296Z,16.20
2018-12-20T10:12:18.112Z,14.50
2018-12-20T10:14:46.920Z,12.98
2018-12-20T10:17:20.001Z,13.20
2018-12-20T10:19:48.364Z,14.40
2018-12-20T10:22:21.968Z,14.73
2018-12-20T10:25:11.724Z,15.18
2018-12-20T10:27:42.476Z,14.05
2018-12-20T10:30:12.320Z,14.10
2018-12-20T10:32:43.023Z,14.13
2018-12-20T10:35:14.939Z,13.83
2018-12-20T10:37:47.052Z,14.73
2018-12-20T10:40:17.828Z,14.10
2018-12-20T10:42:46.692Z,15.30
2018-12-20T10:45:17.516Z,12.78
2018-12-20T10:47:46.334Z,12.63
2018-12-20T10:50:22.540Z,11.53
2018-12-20T10:52:52.352Z,13.58
2018-12-20T10:55:21.240Z,12.07
2018-12-20T10:57:54.336Z,11.97
2018-12-20T11:00:31.964Z,11.12
2018-12-20T11:03:06.512Z,13.50
2018-12-20T11:05:43.076Z,13.05
2018-12-20T11:08:17.623Z,12.78
2018-12-20T11:10:46.356Z,11.55
2018-12-20T11:13:22.011Z,11.12
2018-12-20T11:15:53.796Z,12.98
2018-12-20T11:18:22.743Z,11.07
2018-12-20T11:20:52.488Z,12.50
2018-12-20T11:23:22.263Z,12.68
2018-12-20T11:25:53.009Z,12.93
2018-12-20T11:28:39.504Z,11.73
2018-12-20T11:31:08.307Z,12.23
2018-12-20T11:33:39.148Z,12.43
2018-12-20T11:36:12.859Z,11.90
2018-12-20T11:38:54.596Z,10.97
2018-12-20T11:41:24.384Z,10.13
2018-12-20T11:44:05.320Z,10.77
2018-12-20T11:46:39.011Z,10.37
2018-12-20T11:49:12.628Z,10.55
2018-12-20T11:51:49.320Z,9.93
2018-12-20T11:54:24.336Z,10.23
2018-12-20T11:57:05.891Z,10.20
2018-12-20T11:59:39.372Z,10.35
2018-12-20T12:02:08.204Z,10.18
2018-12-20T12:04:39.947Z,9.67
2018-12-20T12:07:09.736Z,12.40
2018-12-20T12:09:38.465Z,11.20
2018-12-20T12:12:11.177Z,13.63
2018-12-20T12:14:47.488Z,13.47
2018-12-20T12:17:24.076Z,9.80
2018-12-20T12:19:56.204Z,9.57
2018-12-20T12:22:25.078Z,9.23
2018-12-20T12:24:55.888Z,9.17
2018-12-20T12:27:24.756Z,10.03
2018-12-20T12:29:57.684Z,9.23
2018-12-20T12:32:32.060Z,9.13
2018-12-20T12:35:00.880Z,8.68
2018-12-20T12:37:46.344Z,9.10
2018-12-20T12:40:18.765Z,8.55
2018-12-20T12:42:47.902Z,8.55
2018-12-20T12:45:22.148Z,7.95
2018-12-20T12:48:03.265Z,8.55
2018-12-20T12:50:28.248Z,9.20
2018-12-20T12:52:59.026Z,8.15
2018-12-20T12:55:35.584Z,9.50
2018-12-20T12:58:05.157Z,7.80
2018-12-20T13:00:46.484Z,8.45
2018-12-20T13:03:15.293Z,8.53
2018-12-20T13:05:54.392Z,8.60
2018-12-20T13:08:55.868Z,8.23
2018-12-20T13:11:32.644Z,8.73
2018-12-20T13:14:04.713Z,8.83
2018-12-20T13:16:34.660Z,9.53
2018-12-20T13:19:10.032Z,8.18
2018-12-20T13:21:39.764Z,9.38
2018-12-20T13:24:10.552Z,9.28
2018-12-20T13:26:39.348Z,10.88
2018-12-20T13:29:08.148Z,9.05
2018-12-20T13:31:38.916Z,9.28
2018-12-20T13:34:08.737Z,9.25
2018-12-20T13:36:42.580Z,9.00
2018-12-20T13:39:11.436Z,8.83
2018-12-20T13:41:45.684Z,9.50
2018-12-20T13:44:20.912Z,10.70
2018-12-20T13:46:49.629Z,8.58
2018-12-20T13:49:18.501Z,8.38
2018-12-20T13:51:48.251Z,9.43
2018-12-20T13:54:18.028Z,8.68
2018-12-20T13:57:04.372Z,8.73
2018-12-20T13:59:38.117Z,8.78
2018-12-20T14:02:08.844Z,9.50
2018-12-20T14:04:37.698Z,9.15
2018-12-20T14:07:10.812Z,11.93
2018-12-20T14:09:46.188Z,12.30
2018-12-20T14:12:27.001Z,13.50
2018-12-20T14:15:09.268Z,13.93
2018-12-20T14:17:57.100Z,13.25
2018-12-20T14:20:30.264Z,13.00
2018-12-20T14:23:05.033Z,11.88
2018-12-20T14:25:34.765Z,11.55
2018-12-20T14:28:05.588Z,10.55
2018-12-20T14:30:34.396Z,10.08
2018-12-20T14:33:09.632Z,8.63
2018-12-20T14:35:59.745Z,8.33
2018-12-20T14:38:30.529Z,9.15
2018-12-20T14:40:59.370Z,8.58
2018-12-20T14:43:28.208Z,7.50
2018-12-20T14:46:01.100Z,8.50
2018-12-20T14:48:39.261Z,7.47
2018-12-20T14:51:06.339Z,8.13
2018-12-20T14:56:34.641Z,7.53
2018-12-20T14:59:03.387Z,7.47
2018-12-20T15:01:32.260Z,6.28
2018-12-20T15:04:01.093Z,6.30
2018-12-20T15:06:35.072Z,5.90
2018-12-20T15:09:06.353Z,5.90
2018-12-20T15:11:36.065Z,5.45
2018-12-20T15:14:04.848Z,5.35
2018-12-20T15:16:34.572Z,5.70
2018-12-20T15:19:09.248Z,4.80
2018-12-20T15:21:40.117Z,6.00
2018-12-20T15:24:14.704Z,5.78
2018-12-20T15:26:57.628Z,5.50
2018-12-20T15:29:37.996Z,4.92
2018-12-20T15:32:09.965Z,4.87
2018-12-20T15:34:39.792Z,4.20
2018-12-20T15:37:09.612Z,5.65
2018-12-20T15:39:40.408Z,4.22
2018-12-20T15:42:32.828Z,5.22
2018-12-20T15:45:16.812Z,5.70
2018-12-20T15:47:49.060Z,4.40
2018-12-20T15:50:23.804Z,4.03
2018-12-20T15:53:11.379Z,4.78
2018-12-20T15:55:46.656Z,3.98
2018-12-20T15:58:23.020Z,4.97
2018-12-20T16:00:56.292Z,4.95
2018-12-20T16:03:28.392Z,4.80
2018-12-20T16:05:58.257Z,4.30
2018-12-20T16:11:33.626Z,5.22
2018-12-20T16:14:09.505Z,4.90
2018-12-20T16:16:47.796Z,4.85
2018-12-20T16:19:18.452Z,4.35
2018-12-20T16:21:53.538Z,4.25
2018-12-20T16:24:22.380Z,4.37
2018-12-20T16:27:07.980Z,3.90
2018-12-20T16:29:36.868Z,4.10
2018-12-20T16:32:06.600Z,4.95
2018-12-20T16:34:48.980Z,4.42
2018-12-20T16:37:26.492Z,4.55
2018-12-20T16:40:03.503Z,4.85
2018-12-20T16:42:51.464Z,4.85
2018-12-20T16:45:24.064Z,4.22
2018-12-20T16:47:53.792Z,4.72
2018-12-20T16:50:23.476Z,4.95
2018-12-20T16:52:59.780Z,5.42
2018-12-20T16:55:32.647Z,5.15
2018-12-20T16:58:08.853Z,4.90
2018-12-20T17:00:37.680Z,4.78
2018-12-20T17:03:06.600Z,4.75
2018-12-20T17:05:35.460Z,5.55
2018-12-20T17:08:18.686Z,5.90
2018-12-20T17:10:48.387Z,6.10
2018-12-20T17:13:19.112Z,5.40
2018-12-20T17:15:55.516Z,6.47
2018-12-20T17:18:27.376Z,5.67
2018-12-20T17:20:56.160Z,5.70
2018-12-20T17:23:25.960Z,5.62
2018-12-20T17:25:56.736Z,5.80
2018-12-20T17:28:30.980Z,6.78
2018-12-20T17:31:03.708Z,5.60
2018-12-20T17:33:47.621Z,5.35
2018-12-20T17:36:17.367Z,5.40
2018-12-20T17:38:51.879Z,5.75
2018-12-20T17:41:29.372Z,5.55
2018-12-20T17:43:58.120Z,5.05
2018-12-20T17:49:30.473Z,5.33
2018-12-20T17:51:54.216Z,4.10
2018-12-20T17:54:35.008Z,5.75
2018-12-20T17:57:09.221Z,5.60
2018-12-20T17:59:38.069Z,4.90
2018-12-20T18:02:06.896Z,5.08
2018-12-20T18:04:36.747Z,7.00
2018-12-20T18:07:06.468Z,5.83
2018-12-20T18:09:35.288Z,6.95
2018-12-20T18:12:04.224Z,5.92
2018-12-20T18:14:33.060Z,5.92
2018-12-20T18:17:05.392Z,6.45
2018-12-20T18:19:40.516Z,6.35
2018-12-20T18:22:10.292Z,5.20
2018-12-20T18:24:40.273Z,5.37
2018-12-20T18:27:09.091Z,5.08
2018-12-20T18:29:43.052Z,5.75
2018-12-20T18:32:16.680Z,5.30
2018-12-20T18:34:45.473Z,4.53
2018-12-20T18:37:14.360Z,4.58
2018-12-20T18:39:43.056Z,4.75
2018-12-20T18:42:11.796Z,4.47
2018-12-20T18:44:40.644Z,4.62
2018-12-20T18:47:10.452Z,4.28
2018-12-20T18:49:47.316Z,4.85
2018-12-20T18:52:09.940Z,3.45
2018-12-20T18:54:46.617Z,4.70
2018-12-20T18:57:21.016Z,3.60
2018-12-20T18:59:50.737Z,3.37
2018-12-20T19:02:19.652Z,3.72
2018-12-20T19:04:49.453Z,3.90
2018-12-20T19:07:23.412Z,2.87
2018-12-20T19:09:53.140Z,3.15
2018-12-20T19:12:22.856Z,3.12
2018-12-20T19:14:52.600Z,3.15
2018-12-20T19:17:24.720Z,3.33
2018-12-20T19:20:15.793Z,2.90
2018-12-20T19:22:47.100Z,3.77
2018-12-20T19:25:19.816Z,3.95
2018-12-20T19:27:48.637Z,3.95
2018-12-20T19:30:17.606Z,2.90
2018-12-20T19:32:47.312Z,3.08
2018-12-20T19:35:17.112Z,3.60
2018-12-20T19:37:45.929Z,3.35
2018-12-20T19:40:18.805Z,3.62
2018-12-20T19:42:47.529Z,4.10
2018-12-20T19:45:16.385Z,3.92
2018-12-20T19:47:52.245Z,3.65
2018-12-20T19:50:21.933Z,3.50
2018-12-20T19:52:56.545Z,3.90
2018-12-20T19:58:03.885Z,3.50
2018-12-20T20:00:32.833Z,3.02
2018-12-20T20:03:08.581Z,3.65
2018-12-20T20:05:41.341Z,3.20
2018-12-20T20:08:10.100Z,3.40
2018-12-20T20:10:38.897Z,3.55
2018-12-20T20:13:08.665Z,4.50
2018-12-20T20:15:41.190Z,3.42
2018-12-20T20:18:27.949Z,3.58
2018-12-20T20:21:05.297Z,3.30
2018-12-20T20:23:36.046Z,3.12
2018-12-20T20:26:06.805Z,3.58
2018-12-20T20:28:36.717Z,2.85
2018-12-20T20:31:11.110Z,3.62
2018-12-20T20:33:43.914Z,2.90
2018-12-20T20:36:15.630Z,3.00
2018-12-20T20:38:44.501Z,3.47
2018-12-20T20:41:13.401Z,3.60
2018-12-20T20:43:46.711Z,3.10
2018-12-20T20:46:15.530Z,2.72
2018-12-20T20:48:47.470Z,3.42
2018-12-20T20:51:16.210Z,3.30
2018-12-20T20:54:05.001Z,3.20
2018-12-20T20:56:38.850Z,3.35
2018-12-20T20:59:07.702Z,3.22
2018-12-20T21:01:37.565Z,3.17
2018-12-20T21:04:08.442Z,2.90
2018-12-20T21:06:46.962Z,3.62
2018-12-20T21:09:13.538Z,2.60
2018-12-20T21:11:43.218Z,2.90
2018-12-20T21:14:17.806Z,2.98
2018-12-20T21:16:47.649Z,3.52
2018-12-20T21:19:20.181Z,3.02
2018-12-20T21:21:50.010Z,2.70
2018-12-20T21:24:18.898Z,4.97
2018-12-20T21:26:51.319Z,2.80
2018-12-20T21:29:22.122Z,3.92
2018-12-20T21:31:57.950Z,3.37
2018-12-20T21:34:26.742Z,2.95
2018-12-20T21:36:57.526Z,2.55
2018-12-20T21:39:27.337Z,3.85
2018-12-20T21:41:56.062Z,3.15
2018-12-20T21:44:26.738Z,3.05
2018-12-20T21:46:59.386Z,3.00
2018-12-20T21:49:33.191Z,2.80
2018-12-20T21:52:01.990Z,2.95
2018-12-20T21:54:34.478Z,2.40
2018-12-20T21:57:11.386Z,3.40
2018-12-20T21:59:47.382Z,3.17
2018-12-20T22:02:17.130Z,3.08
2018-12-20T22:04:50.677Z,3.37
2018-12-20T22:07:19.490Z,3.00
2018-12-20T22:09:50.221Z,2.42
2018-12-20T22:12:25.299Z,2.83
2018-12-20T22:14:57.236Z,2.95
2018-12-20T22:17:27.970Z,2.65
2018-12-20T22:19:58.709Z,2.75
2018-12-20T22:22:27.576Z,2.65
2018-12-20T22:25:02.722Z,3.00
2018-12-20T22:27:32.526Z,2.58
2018-12-20T22:30:07.701Z,2.50
2018-12-20T22:32:37.396Z,3.30
2018-12-20T22:35:06.262Z,2.35
2018-12-20T22:37:36.098Z,2.83
2018-12-20T22:40:07.118Z,1.82
2018-12-20T22:42:45.702Z,2.40
2018-12-20T22:45:14.506Z,2.58
2018-12-20T22:47:44.214Z,2.58
2018-12-20T22:50:15.098Z,2.98
2018-12-20T22:52:44.879Z,2.08
2018-12-20T22:55:14.786Z,2.60
2018-12-20T22:57:44.525Z,2.50
2018-12-20T23:00:18.290Z,2.58
2018-12-20T23:03:04.457Z,2.85
2018-12-20T23:05:33.253Z,2.80
2018-12-20T23:08:05.254Z,2.65
2018-12-20T23:10:36.041Z,2.60
2018-12-20T23:13:04.814Z,3.22
2018-12-20T23:15:48.265Z,3.08
2018-12-20T23:18:36.130Z,3.02
2018-12-20T23:21:07.057Z,3.58
2018-12-20T23:23:36.878Z,3.05
2018-12-20T23:26:05.797Z,3.83
2018-12-20T23:28:34.682Z,3.67
2018-12-20T23:31:04.523Z,3.50
2018-12-20T23:33:34.195Z,3.50
2018-12-20T23:36:05.191Z,4.08
2018-12-20T23:38:34.169Z,3.77
2018-12-20T23:41:02.902Z,3.22
2018-12-20T23:43:37.182Z,3.47
2018-12-20T23:46:06.023Z,3.37
2018-12-20T23:48:45.166Z,4.00
2018-12-20T23:51:15.966Z,3.80
2018-12-20T23:53:47.638Z,3.30
2018-12-20T23:56:18.442Z,3.27
2018-12-20T23:58:48.082Z,4.55
